sensor_id;sensor_type;location;lat;lon;timestamp;P1;durP1;ratioP1;P2;durP2;ratioP2
50309;SDS011;36207;51.850;21.698;2022-11-15T00:00:49;28.80;;;18.10;;
50309;SDS011;36207;51.850;21.698;2022-11-15T00:03:20;31.20;;;18.80;;
50309;SDS011;36207;51.850;21.698;2022-11-15T00:05:48;27.50;;;18.40;;
50309;SDS011;36207;51.850;21.698;2022-11-15T00:08:14;30.30;;;18.50;;
50309;SDS011;36207;51.850;21.698;2022-11-15T00:10:41;29.80;;;19.20;;
50309;SDS011;36207;51.850;21.698;2022-11-15T00:13:08;32.10;;;20.30;;
50309;SDS011;36207;51.850;21.698;2022-11-15T00:15:39;35.30;;;20.00;;
50309;SDS011;36207;51.850;21.698;2022-11-15T00:18:11;30.60;;;18.60;;
50309;SDS011;36207;51.850;21.698;2022-11-15T00:20:38;34.20;;;19.70;;
50309;SDS011;36207;51.850;21.698;2022-11-15T00:23:05;36.70;;;20.50;;
50309;SDS011;36207;51.850;21.698;2022-11-15T00:25:32;32.60;;;19.80;;
50309;SDS011;36207;51.850;21.698;2022-11-15T00:27:59;34.50;;;20.20;;
50309;SDS011;36207;51.850;21.698;2022-11-15T00:30:26;30.40;;;19.10;;
50309;SDS011;36207;51.850;21.698;2022-11-15T00:32:53;33.30;;;20.00;;
50309;SDS011;36207;51.850;21.698;2022-11-15T00:35:19;32.90;;;20.00;;
50309;SDS011;36207;51.850;21.698;2022-11-15T00:37:47;32.60;;;20.00;;
50309;SDS011;36207;51.850;21.698;2022-11-15T00:40:14;35.50;;;20.70;;
50309;SDS011;36207;51.850;21.698;2022-11-15T00:42:40;31.90;;;19.60;;
50309;SDS011;36207;51.850;21.698;2022-11-15T00:45:07;33.60;;;19.00;;
50309;SDS011;36207;51.850;21.698;2022-11-15T00:47:34;34.60;;;20.10;;
50309;SDS011;36207;51.850;21.698;2022-11-15T00:50:00;37.20;;;20.80;;
50309;SDS011;36207;51.850;21.698;2022-11-15T00:52:26;36.00;;;21.50;;
50309;SDS011;36207;51.850;21.698;2022-11-15T00:54:52;36.60;;;21.90;;
50309;SDS011;36207;51.850;21.698;2022-11-15T00:57:19;37.50;;;22.10;;
50309;SDS011;36207;51.850;21.698;2022-11-15T00:59:45;35.00;;;19.70;;
50309;SDS011;36207;51.850;21.698;2022-11-15T01:02:11;37.50;;;20.90;;
50309;SDS011;36207;51.850;21.698;2022-11-15T01:04:37;40.20;;;22.50;;
50309;SDS011;36207;51.850;21.698;2022-11-15T01:07:03;38.50;;;21.90;;
50309;SDS011;36207;51.850;21.698;2022-11-15T01:09:29;44.90;;;23.70;;
50309;SDS011;36207;51.850;21.698;2022-11-15T01:11:56;41.30;;;23.40;;
50309;SDS011;36207;51.850;21.698;2022-11-15T01:14:22;42.70;;;23.10;;
50309;SDS011;36207;51.850;21.698;2022-11-15T01:16:48;43.50;;;23.60;;
50309;SDS011;36207;51.850;21.698;2022-11-15T01:19:14;43.20;;;23.40;;
50309;SDS011;36207;51.850;21.698;2022-11-15T01:21:40;42.30;;;23.40;;
50309;SDS011;36207;51.850;21.698;2022-11-15T01:24:07;44.00;;;23.40;;
50309;SDS011;36207;51.850;21.698;2022-11-15T01:26:37;39.90;;;23.30;;
50309;SDS011;36207;51.850;21.698;2022-11-15T01:29:03;40.80;;;22.90;;
50309;SDS011;36207;51.850;21.698;2022-11-15T01:31:29;43.50;;;24.20;;
50309;SDS011;36207;51.850;21.698;2022-11-15T01:33:56;43.80;;;24.00;;
50309;SDS011;36207;51.850;21.698;2022-11-15T01:36:22;42.30;;;23.20;;
50309;SDS011;36207;51.850;21.698;2022-11-15T01:38:53;44.30;;;23.90;;
50309;SDS011;36207;51.850;21.698;2022-11-15T01:41:22;44.30;;;23.90;;
50309;SDS011;36207;51.850;21.698;2022-11-15T01:43:52;44.40;;;24.60;;
50309;SDS011;36207;51.850;21.698;2022-11-15T01:49:03;38.90;;;22.40;;
50309;SDS011;36207;51.850;21.698;2022-11-15T01:51:37;41.30;;;22.50;;
50309;SDS011;36207;51.850;21.698;2022-11-15T01:54:04;45.30;;;23.60;;
50309;SDS011;36207;51.850;21.698;2022-11-15T01:56:36;45.70;;;24.60;;
50309;SDS011;36207;51.850;21.698;2022-11-15T01:59:08;45.60;;;24.50;;
50309;SDS011;36207;51.850;21.698;2022-11-15T02:01:35;49.90;;;25.90;;
50309;SDS011;36207;51.850;21.698;2022-11-15T02:04:24;47.80;;;25.10;;
50309;SDS011;36207;51.850;21.698;2022-11-15T02:06:51;48.40;;;26.20;;
50309;SDS011;36207;51.850;21.698;2022-11-15T02:09:17;48.30;;;24.50;;
50309;SDS011;36207;51.850;21.698;2022-11-15T02:11:44;48.60;;;24.20;;
50309;SDS011;36207;51.850;21.698;2022-11-15T02:14:13;47.40;;;24.80;;
50309;SDS011;36207;51.850;21.698;2022-11-15T02:16:59;48.00;;;24.90;;
50309;SDS011;36207;51.850;21.698;2022-11-15T02:20:01;50.60;;;25.20;;
50309;SDS011;36207;51.850;21.698;2022-11-15T02:22:46;52.20;;;25.30;;
50309;SDS011;36207;51.850;21.698;2022-11-15T02:34:03;43.10;;;24.00;;
50309;SDS011;36207;51.850;21.698;2022-11-15T02:36:42;45.70;;;22.80;;
50309;SDS011;36207;51.850;21.698;2022-11-15T02:42:13;46.00;;;24.00;;
50309;SDS011;36207;51.850;21.698;2022-11-15T02:45:03;44.10;;;22.70;;
50309;SDS011;36207;51.850;21.698;2022-11-15T02:47:34;42.10;;;22.50;;
50309;SDS011;36207;51.850;21.698;2022-11-15T02:52:35;47.20;;;23.80;;
50309;SDS011;36207;51.850;21.698;2022-11-15T02:55:02;51.20;;;24.40;;
50309;SDS011;36207;51.850;21.698;2022-11-15T02:57:40;47.10;;;25.00;;
50309;SDS011;36207;51.850;21.698;2022-11-15T03:06:32;51.80;;;25.10;;
50309;SDS011;36207;51.850;21.698;2022-11-15T03:12:15;51.20;;;24.10;;
50309;SDS011;36207;51.850;21.698;2022-11-15T03:14:53;50.30;;;23.70;;
50309;SDS011;36207;51.850;21.698;2022-11-15T03:17:36;51.00;;;25.00;;
50309;SDS011;36207;51.850;21.698;2022-11-15T03:20:08;49.10;;;24.80;;
50309;SDS011;36207;51.850;21.698;2022-11-15T03:22:39;43.90;;;22.80;;
50309;SDS011;36207;51.850;21.698;2022-11-15T03:27:40;45.70;;;23.90;;
50309;SDS011;36207;51.850;21.698;2022-11-15T03:30:12;57.70;;;25.30;;
50309;SDS011;36207;51.850;21.698;2022-11-15T03:32:44;45.10;;;22.50;;
50309;SDS011;36207;51.850;21.698;2022-11-15T03:35:16;41.70;;;22.30;;
50309;SDS011;36207;51.850;21.698;2022-11-15T03:40:47;45.90;;;22.30;;
50309;SDS011;36207;51.850;21.698;2022-11-15T03:46:14;42.20;;;22.00;;
50309;SDS011;36207;51.850;21.698;2022-11-15T03:48:50;41.90;;;22.50;;
50309;SDS011;36207;51.850;21.698;2022-11-15T03:51:22;47.10;;;22.90;;
50309;SDS011;36207;51.850;21.698;2022-11-15T03:53:48;50.50;;;25.00;;
50309;SDS011;36207;51.850;21.698;2022-11-15T03:56:15;53.60;;;24.80;;
50309;SDS011;36207;51.850;21.698;2022-11-15T03:58:42;52.90;;;25.20;;
50309;SDS011;36207;51.850;21.698;2022-11-15T04:01:08;48.40;;;24.30;;
50309;SDS011;36207;51.850;21.698;2022-11-15T04:03:34;53.90;;;24.20;;
50309;SDS011;36207;51.850;21.698;2022-11-15T04:06:00;48.40;;;24.40;;
50309;SDS011;36207;51.850;21.698;2022-11-15T04:08:26;53.70;;;25.80;;
50309;SDS011;36207;51.850;21.698;2022-11-15T04:10:53;51.00;;;25.10;;
50309;SDS011;36207;51.850;21.698;2022-11-15T04:13:19;48.10;;;24.10;;
50309;SDS011;36207;51.850;21.698;2022-11-15T04:15:45;52.10;;;24.90;;
50309;SDS011;36207;51.850;21.698;2022-11-15T04:18:11;50.30;;;25.20;;
50309;SDS011;36207;51.850;21.698;2022-11-15T04:20:38;51.20;;;24.60;;
50309;SDS011;36207;51.850;21.698;2022-11-15T04:23:23;50.10;;;23.40;;
50309;SDS011;36207;51.850;21.698;2022-11-15T04:26:11;52.00;;;24.30;;
50309;SDS011;36207;51.850;21.698;2022-11-15T04:28:42;51.40;;;25.10;;
50309;SDS011;36207;51.850;21.698;2022-11-15T04:31:27;53.90;;;25.30;;
50309;SDS011;36207;51.850;21.698;2022-11-15T04:33:53;56.70;;;26.10;;
50309;SDS011;36207;51.850;21.698;2022-11-15T04:36:20;50.30;;;24.00;;
50309;SDS011;36207;51.850;21.698;2022-11-15T04:39:06;49.50;;;24.10;;
50309;SDS011;36207;51.850;21.698;2022-11-15T04:41:32;57.30;;;25.10;;
50309;SDS011;36207;51.850;21.698;2022-11-15T04:43:58;50.30;;;23.80;;
50309;SDS011;36207;51.850;21.698;2022-11-15T04:46:24;54.70;;;25.10;;
50309;SDS011;36207;51.850;21.698;2022-11-15T04:48:51;50.10;;;23.50;;
50309;SDS011;36207;51.850;21.698;2022-11-15T04:51:18;57.90;;;25.80;;
50309;SDS011;36207;51.850;21.698;2022-11-15T04:53:44;54.40;;;24.30;;
50309;SDS011;36207;51.850;21.698;2022-11-15T04:56:11;47.00;;;23.20;;
50309;SDS011;36207;51.850;21.698;2022-11-15T04:58:37;54.80;;;25.10;;
50309;SDS011;36207;51.850;21.698;2022-11-15T05:01:07;49.90;;;24.10;;
50309;SDS011;36207;51.850;21.698;2022-11-15T05:03:34;52.00;;;24.60;;
50309;SDS011;36207;51.850;21.698;2022-11-15T05:06:19;48.40;;;23.20;;
50309;SDS011;36207;51.850;21.698;2022-11-15T05:08:45;52.90;;;24.70;;
50309;SDS011;36207;51.850;21.698;2022-11-15T05:11:11;58.00;;;25.60;;
50309;SDS011;36207;51.850;21.698;2022-11-15T05:13:37;58.40;;;25.80;;
50309;SDS011;36207;51.850;21.698;2022-11-15T05:16:04;55.50;;;24.90;;
50309;SDS011;36207;51.850;21.698;2022-11-15T05:18:30;56.70;;;24.70;;
50309;SDS011;36207;51.850;21.698;2022-11-15T05:21:02;50.20;;;22.20;;
50309;SDS011;36207;51.850;21.698;2022-11-15T05:23:29;56.70;;;23.30;;
50309;SDS011;36207;51.850;21.698;2022-11-15T05:25:59;51.50;;;22.60;;
50309;SDS011;36207;51.850;21.698;2022-11-15T05:28:26;50.30;;;21.70;;
50309;SDS011;36207;51.850;21.698;2022-11-15T05:30:52;46.80;;;20.60;;
50309;SDS011;36207;51.850;21.698;2022-11-15T05:33:18;43.20;;;20.00;;
50309;SDS011;36207;51.850;21.698;2022-11-15T05:35:46;44.20;;;20.80;;
50309;SDS011;36207;51.850;21.698;2022-11-15T05:38:17;44.30;;;20.70;;
50309;SDS011;36207;51.850;21.698;2022-11-15T05:40:43;46.10;;;20.50;;
50309;SDS011;36207;51.850;21.698;2022-11-15T05:43:10;43.30;;;21.10;;
50309;SDS011;36207;51.850;21.698;2022-11-15T05:45:37;41.80;;;20.50;;
50309;SDS011;36207;51.850;21.698;2022-11-15T05:48:04;48.90;;;21.30;;
50309;SDS011;36207;51.850;21.698;2022-11-15T05:50:34;46.80;;;21.70;;
50309;SDS011;36207;51.850;21.698;2022-11-15T05:53:04;46.00;;;21.00;;
50309;SDS011;36207;51.850;21.698;2022-11-15T05:55:31;50.20;;;20.90;;
50309;SDS011;36207;51.850;21.698;2022-11-15T05:57:57;42.50;;;20.50;;
50309;SDS011;36207;51.850;21.698;2022-11-15T06:00:24;46.20;;;20.80;;
50309;SDS011;36207;51.850;21.698;2022-11-15T06:02:50;43.00;;;19.90;;
50309;SDS011;36207;51.850;21.698;2022-11-15T06:05:17;41.10;;;19.10;;
50309;SDS011;36207;51.850;21.698;2022-11-15T06:07:43;50.90;;;20.70;;
50309;SDS011;36207;51.850;21.698;2022-11-15T06:10:10;52.20;;;20.00;;
50309;SDS011;36207;51.850;21.698;2022-11-15T06:12:36;47.40;;;19.00;;
50309;SDS011;36207;51.850;21.698;2022-11-15T06:15:02;41.30;;;18.90;;
50309;SDS011;36207;51.850;21.698;2022-11-15T06:17:29;51.30;;;19.20;;
50309;SDS011;36207;51.850;21.698;2022-11-15T06:19:55;46.70;;;18.70;;
50309;SDS011;36207;51.850;21.698;2022-11-15T06:22:21;44.80;;;19.40;;
50309;SDS011;36207;51.850;21.698;2022-11-15T06:24:47;39.50;;;19.70;;
50309;SDS011;36207;51.850;21.698;2022-11-15T06:27:15;40.80;;;17.90;;
50309;SDS011;36207;51.850;21.698;2022-11-15T06:29:41;41.50;;;18.70;;
50309;SDS011;36207;51.850;21.698;2022-11-15T06:32:07;50.50;;;19.20;;
50309;SDS011;36207;51.850;21.698;2022-11-15T06:34:33;47.80;;;19.70;;
50309;SDS011;36207;51.850;21.698;2022-11-15T06:37:02;42.50;;;19.50;;
50309;SDS011;36207;51.850;21.698;2022-11-15T06:39:28;43.70;;;19.00;;
50309;SDS011;36207;51.850;21.698;2022-11-15T06:41:54;44.70;;;20.00;;
50309;SDS011;36207;51.850;21.698;2022-11-15T06:44:20;47.00;;;19.80;;
50309;SDS011;36207;51.850;21.698;2022-11-15T06:46:47;43.00;;;18.70;;
50309;SDS011;36207;51.850;21.698;2022-11-15T06:49:13;37.60;;;18.00;;
50309;SDS011;36207;51.850;21.698;2022-11-15T06:51:40;36.40;;;17.70;;
50309;SDS011;36207;51.850;21.698;2022-11-15T06:54:06;37.80;;;17.90;;
50309;SDS011;36207;51.850;21.698;2022-11-15T06:56:33;37.70;;;18.00;;
50309;SDS011;36207;51.850;21.698;2022-11-15T06:59:00;35.10;;;16.20;;
50309;SDS011;36207;51.850;21.698;2022-11-15T07:01:26;34.00;;;16.30;;
50309;SDS011;36207;51.850;21.698;2022-11-15T07:03:52;35.30;;;16.50;;
50309;SDS011;36207;51.850;21.698;2022-11-15T07:06:18;36.50;;;16.90;;
50309;SDS011;36207;51.850;21.698;2022-11-15T07:08:44;36.00;;;17.20;;
50309;SDS011;36207;51.850;21.698;2022-11-15T07:11:11;31.70;;;16.60;;
50309;SDS011;36207;51.850;21.698;2022-11-15T07:13:37;35.40;;;17.00;;
50309;SDS011;36207;51.850;21.698;2022-11-15T07:16:08;39.00;;;16.80;;
50309;SDS011;36207;51.850;21.698;2022-11-15T07:18:36;33.60;;;17.20;;
50309;SDS011;36207;51.850;21.698;2022-11-15T07:21:04;34.80;;;17.30;;
50309;SDS011;36207;51.850;21.698;2022-11-15T07:23:32;38.70;;;16.80;;
50309;SDS011;36207;51.850;21.698;2022-11-15T07:25:58;32.00;;;16.40;;
50309;SDS011;36207;51.850;21.698;2022-11-15T07:28:25;32.00;;;16.20;;
50309;SDS011;36207;51.850;21.698;2022-11-15T07:30:52;33.00;;;16.10;;
50309;SDS011;36207;51.850;21.698;2022-11-15T07:33:19;33.60;;;16.40;;
50309;SDS011;36207;51.850;21.698;2022-11-15T07:35:46;34.80;;;17.00;;
50309;SDS011;36207;51.850;21.698;2022-11-15T07:38:15;32.60;;;17.30;;
50309;SDS011;36207;51.850;21.698;2022-11-15T07:40:45;34.20;;;16.70;;
50309;SDS011;36207;51.850;21.698;2022-11-15T07:43:12;34.90;;;17.80;;
50309;SDS011;36207;51.850;21.698;2022-11-15T07:45:43;33.30;;;16.70;;
50309;SDS011;36207;51.850;21.698;2022-11-15T07:48:10;33.50;;;16.80;;
50309;SDS011;36207;51.850;21.698;2022-11-15T07:50:36;33.60;;;16.30;;
50309;SDS011;36207;51.850;21.698;2022-11-15T07:53:07;32.60;;;15.90;;
50309;SDS011;36207;51.850;21.698;2022-11-15T07:55:34;31.50;;;15.90;;
50309;SDS011;36207;51.850;21.698;2022-11-15T07:58:01;30.70;;;14.90;;
50309;SDS011;36207;51.850;21.698;2022-11-15T08:00:31;30.40;;;14.80;;
50309;SDS011;36207;51.850;21.698;2022-11-15T08:03:05;33.40;;;16.00;;
50309;SDS011;36207;51.850;21.698;2022-11-15T08:05:33;31.20;;;15.50;;
50309;SDS011;36207;51.850;21.698;2022-11-15T08:08:01;28.30;;;15.30;;
50309;SDS011;36207;51.850;21.698;2022-11-15T08:10:28;29.90;;;15.90;;
50309;SDS011;36207;51.850;21.698;2022-11-15T08:13:03;27.90;;;15.40;;
50309;SDS011;36207;51.850;21.698;2022-11-15T08:15:34;31.60;;;15.10;;
50309;SDS011;36207;51.850;21.698;2022-11-15T08:18:03;31.20;;;15.80;;
50309;SDS011;36207;51.850;21.698;2022-11-15T08:20:31;28.10;;;15.30;;
50309;SDS011;36207;51.850;21.698;2022-11-15T08:22:58;29.10;;;15.30;;
50309;SDS011;36207;51.850;21.698;2022-11-15T08:25:27;32.60;;;15.70;;
50309;SDS011;36207;51.850;21.698;2022-11-15T08:27:56;32.70;;;16.60;;
50309;SDS011;36207;51.850;21.698;2022-11-15T08:30:24;33.10;;;16.60;;
50309;SDS011;36207;51.850;21.698;2022-11-15T08:32:51;28.80;;;15.80;;
50309;SDS011;36207;51.850;21.698;2022-11-15T08:35:19;28.80;;;15.80;;
50309;SDS011;36207;51.850;21.698;2022-11-15T08:37:46;28.00;;;15.80;;
50309;SDS011;36207;51.850;21.698;2022-11-15T08:40:13;28.70;;;16.10;;
50309;SDS011;36207;51.850;21.698;2022-11-15T08:42:39;26.90;;;15.30;;
50309;SDS011;36207;51.850;21.698;2022-11-15T08:45:07;27.30;;;16.10;;
50309;SDS011;36207;51.850;21.698;2022-11-15T08:47:34;29.30;;;14.90;;
50309;SDS011;36207;51.850;21.698;2022-11-15T08:50:01;28.90;;;15.90;;
50309;SDS011;36207;51.850;21.698;2022-11-15T08:52:27;29.20;;;15.80;;
50309;SDS011;36207;51.850;21.698;2022-11-15T08:54:54;30.60;;;16.20;;
50309;SDS011;36207;51.850;21.698;2022-11-15T08:57:21;29.70;;;16.80;;
50309;SDS011;36207;51.850;21.698;2022-11-15T08:59:47;26.50;;;15.90;;
50309;SDS011;36207;51.850;21.698;2022-11-15T09:02:13;29.00;;;16.30;;
50309;SDS011;36207;51.850;21.698;2022-11-15T09:04:40;29.00;;;16.70;;
50309;SDS011;36207;51.850;21.698;2022-11-15T09:07:08;31.90;;;17.80;;
50309;SDS011;36207;51.850;21.698;2022-11-15T09:09:37;28.50;;;16.50;;
50309;SDS011;36207;51.850;21.698;2022-11-15T09:12:03;29.80;;;16.50;;
50309;SDS011;36207;51.850;21.698;2022-11-15T09:14:30;28.60;;;16.60;;
50309;SDS011;36207;51.850;21.698;2022-11-15T09:16:57;29.10;;;17.00;;
50309;SDS011;36207;51.850;21.698;2022-11-15T09:19:24;31.10;;;17.30;;
50309;SDS011;36207;51.850;21.698;2022-11-15T09:21:50;31.30;;;17.00;;
50309;SDS011;36207;51.850;21.698;2022-11-15T09:24:16;27.70;;;17.00;;
50309;SDS011;36207;51.850;21.698;2022-11-15T09:26:43;29.10;;;16.30;;
50309;SDS011;36207;51.850;21.698;2022-11-15T09:29:10;30.70;;;16.60;;
50309;SDS011;36207;51.850;21.698;2022-11-15T09:31:36;30.90;;;17.10;;
50309;SDS011;36207;51.850;21.698;2022-11-15T09:34:02;30.30;;;16.60;;
50309;SDS011;36207;51.850;21.698;2022-11-15T09:36:29;29.10;;;16.50;;
50309;SDS011;36207;51.850;21.698;2022-11-15T09:38:57;29.50;;;15.90;;
50309;SDS011;36207;51.850;21.698;2022-11-15T09:49:52;26.30;;;16.00;;
50309;SDS011;36207;51.850;21.698;2022-11-15T09:52:19;26.00;;;15.60;;
50309;SDS011;36207;51.850;21.698;2022-11-15T09:54:48;25.00;;;15.90;;
50309;SDS011;36207;51.850;21.698;2022-11-15T10:00:09;24.90;;;14.70;;
50309;SDS011;36207;51.850;21.698;2022-11-15T10:02:43;28.90;;;16.10;;
50309;SDS011;36207;51.850;21.698;2022-11-15T10:05:28;25.50;;;15.10;;
50309;SDS011;36207;51.850;21.698;2022-11-15T10:13:15;24.10;;;15.00;;
50309;SDS011;36207;51.850;21.698;2022-11-15T10:15:48;27.10;;;16.50;;
50309;SDS011;36207;51.850;21.698;2022-11-15T10:18:17;27.90;;;16.20;;
50309;SDS011;36207;51.850;21.698;2022-11-15T10:21:16;32.40;;;17.20;;
50309;SDS011;36207;51.850;21.698;2022-11-15T10:23:45;28.30;;;17.20;;
50309;SDS011;36207;51.850;21.698;2022-11-15T10:26:13;31.00;;;17.50;;
50309;SDS011;36207;51.850;21.698;2022-11-15T10:28:42;30.50;;;17.90;;
50309;SDS011;36207;51.850;21.698;2022-11-15T10:31:25;30.90;;;17.60;;
50309;SDS011;36207;51.850;21.698;2022-11-15T10:33:59;26.70;;;17.00;;
50309;SDS011;36207;51.850;21.698;2022-11-15T10:36:38;27.30;;;17.30;;
50309;SDS011;36207;51.850;21.698;2022-11-15T10:39:13;30.40;;;17.50;;
50309;SDS011;36207;51.850;21.698;2022-11-15T10:41:41;29.90;;;17.80;;
50309;SDS011;36207;51.850;21.698;2022-11-15T10:44:19;28.60;;;17.40;;
50309;SDS011;36207;51.850;21.698;2022-11-15T10:49:23;24.70;;;16.00;;
50309;SDS011;36207;51.850;21.698;2022-11-15T10:52:14;30.50;;;17.80;;
50309;SDS011;36207;51.850;21.698;2022-11-15T10:54:46;31.50;;;17.40;;
50309;SDS011;36207;51.850;21.698;2022-11-15T10:57:14;28.40;;;17.80;;
50309;SDS011;36207;51.850;21.698;2022-11-15T10:59:46;27.60;;;17.30;;
50309;SDS011;36207;51.850;21.698;2022-11-15T11:02:35;27.00;;;16.50;;
50309;SDS011;36207;51.850;21.698;2022-11-15T11:05:05;29.10;;;17.20;;
50309;SDS011;36207;51.850;21.698;2022-11-15T11:08:01;26.60;;;16.40;;
50309;SDS011;36207;51.850;21.698;2022-11-15T11:10:30;30.20;;;18.20;;
50309;SDS011;36207;51.850;21.698;2022-11-15T11:13:12;26.30;;;16.20;;
50309;SDS011;36207;51.850;21.698;2022-11-15T11:15:40;26.40;;;16.40;;
50309;SDS011;36207;51.850;21.698;2022-11-15T11:18:15;27.20;;;16.60;;
50309;SDS011;36207;51.850;21.698;2022-11-15T11:21:05;26.20;;;17.10;;
50309;SDS011;36207;51.850;21.698;2022-11-15T11:32:04;30.40;;;18.10;;
50309;SDS011;36207;51.850;21.698;2022-11-15T11:35:03;32.00;;;18.90;;
50309;SDS011;36207;51.850;21.698;2022-11-15T11:45:53;28.00;;;17.70;;
50309;SDS011;36207;51.850;21.698;2022-11-15T11:52:10;26.50;;;16.70;;
50309;SDS011;36207;51.850;21.698;2022-11-15T11:54:53;30.70;;;18.60;;
50309;SDS011;36207;51.850;21.698;2022-11-15T11:57:41;30.10;;;17.70;;
50309;SDS011;36207;51.850;21.698;2022-11-15T12:11:01;25.40;;;16.50;;
50309;SDS011;36207;51.850;21.698;2022-11-15T12:13:42;28.40;;;17.40;;
50309;SDS011;36207;51.850;21.698;2022-11-15T12:16:14;25.30;;;16.90;;
50309;SDS011;36207;51.850;21.698;2022-11-15T12:19:09;28.30;;;18.00;;
50309;SDS011;36207;51.850;21.698;2022-11-15T12:21:43;28.20;;;17.70;;
50309;SDS011;36207;51.850;21.698;2022-11-15T12:24:32;26.20;;;16.70;;
50309;SDS011;36207;51.850;21.698;2022-11-15T12:27:38;25.80;;;16.70;;
50309;SDS011;36207;51.850;21.698;2022-11-15T12:30:00;25.50;;;15.90;;
50309;SDS011;36207;51.850;21.698;2022-11-15T12:32:34;25.00;;;16.60;;
50309;SDS011;36207;51.850;21.698;2022-11-15T12:35:04;25.80;;;16.90;;
50309;SDS011;36207;51.850;21.698;2022-11-15T12:37:55;26.30;;;16.30;;
50309;SDS011;36207;51.850;21.698;2022-11-15T12:40:27;25.70;;;16.90;;
50309;SDS011;36207;51.850;21.698;2022-11-15T12:45:37;28.10;;;17.90;;
50309;SDS011;36207;51.850;21.698;2022-11-15T12:58:42;29.30;;;18.00;;
50309;SDS011;36207;51.850;21.698;2022-11-15T13:01:09;28.20;;;18.60;;
50309;SDS011;36207;51.850;21.698;2022-11-15T13:03:43;29.60;;;19.00;;
50309;SDS011;36207;51.850;21.698;2022-11-15T13:06:42;29.80;;;18.90;;
50309;SDS011;36207;51.850;21.698;2022-11-15T13:12:06;27.30;;;18.40;;
50309;SDS011;36207;51.850;21.698;2022-11-15T13:17:03;30.70;;;19.10;;
50309;SDS011;36207;51.850;21.698;2022-11-15T13:19:46;33.40;;;18.90;;
50309;SDS011;36207;51.850;21.698;2022-11-15T13:22:18;32.10;;;19.60;;
50309;SDS011;36207;51.850;21.698;2022-11-15T13:25:03;30.20;;;19.30;;
50309;SDS011;36207;51.850;21.698;2022-11-15T13:27:40;31.10;;;19.10;;
50309;SDS011;36207;51.850;21.698;2022-11-15T13:30:14;28.60;;;18.70;;
50309;SDS011;36207;51.850;21.698;2022-11-15T13:32:46;30.90;;;19.40;;
50309;SDS011;36207;51.850;21.698;2022-11-15T13:35:27;28.10;;;19.00;;
50309;SDS011;36207;51.850;21.698;2022-11-15T13:37:57;30.50;;;19.00;;
50309;SDS011;36207;51.850;21.698;2022-11-15T13:40:34;29.40;;;18.80;;
50309;SDS011;36207;51.850;21.698;2022-11-15T13:43:26;30.20;;;20.10;;
50309;SDS011;36207;51.850;21.698;2022-11-15T13:46:04;32.40;;;19.90;;
50309;SDS011;36207;51.850;21.698;2022-11-15T13:48:30;33.00;;;20.30;;
50309;SDS011;36207;51.850;21.698;2022-11-15T13:51:00;31.30;;;19.70;;
50309;SDS011;36207;51.850;21.698;2022-11-15T13:53:30;30.10;;;19.90;;
50309;SDS011;36207;51.850;21.698;2022-11-15T13:55:58;30.00;;;19.90;;
50309;SDS011;36207;51.850;21.698;2022-11-15T13:58:25;31.00;;;19.50;;
50309;SDS011;36207;51.850;21.698;2022-11-15T14:01:01;30.80;;;19.40;;
50309;SDS011;36207;51.850;21.698;2022-11-15T14:03:31;30.80;;;19.80;;
50309;SDS011;36207;51.850;21.698;2022-11-15T14:06:14;30.00;;;19.30;;
50309;SDS011;36207;51.850;21.698;2022-11-15T14:08:42;29.50;;;19.30;;
50309;SDS011;36207;51.850;21.698;2022-11-15T14:11:52;30.20;;;19.50;;
50309;SDS011;36207;51.850;21.698;2022-11-15T14:14:44;34.10;;;21.50;;
50309;SDS011;36207;51.850;21.698;2022-11-15T14:23:19;33.90;;;21.10;;
50309;SDS011;36207;51.850;21.698;2022-11-15T14:25:53;35.00;;;22.00;;
50309;SDS011;36207;51.850;21.698;2022-11-15T14:30:49;33.90;;;22.00;;
50309;SDS011;36207;51.850;21.698;2022-11-15T14:33:21;35.00;;;21.40;;
50309;SDS011;36207;51.850;21.698;2022-11-15T14:35:55;34.90;;;20.20;;
50309;SDS011;36207;51.850;21.698;2022-11-15T14:38:26;35.00;;;21.20;;
50309;SDS011;36207;51.850;21.698;2022-11-15T14:40:52;35.30;;;21.90;;
50309;SDS011;36207;51.850;21.698;2022-11-15T14:43:20;30.70;;;20.60;;
50309;SDS011;36207;51.850;21.698;2022-11-15T14:45:46;32.30;;;20.70;;
50309;SDS011;36207;51.850;21.698;2022-11-15T14:48:13;33.30;;;20.80;;
50309;SDS011;36207;51.850;21.698;2022-11-15T14:50:40;34.80;;;22.20;;
50309;SDS011;36207;51.850;21.698;2022-11-15T14:53:10;37.50;;;22.10;;
50309;SDS011;36207;51.850;21.698;2022-11-15T14:55:39;40.00;;;22.80;;
50309;SDS011;36207;51.850;21.698;2022-11-15T14:58:05;36.50;;;22.30;;
50309;SDS011;36207;51.850;21.698;2022-11-15T15:00:37;38.90;;;23.50;;
50309;SDS011;36207;51.850;21.698;2022-11-15T15:03:06;38.80;;;23.90;;
50309;SDS011;36207;51.850;21.698;2022-11-15T15:05:37;38.20;;;24.10;;
50309;SDS011;36207;51.850;21.698;2022-11-15T15:08:08;41.50;;;24.40;;
50309;SDS011;36207;51.850;21.698;2022-11-15T15:10:37;41.40;;;24.20;;
50309;SDS011;36207;51.850;21.698;2022-11-15T15:13:17;41.10;;;24.30;;
50309;SDS011;36207;51.850;21.698;2022-11-15T15:15:45;42.80;;;24.00;;
50309;SDS011;36207;51.850;21.698;2022-11-15T15:18:12;38.70;;;23.40;;
50309;SDS011;36207;51.850;21.698;2022-11-15T15:20:41;38.10;;;24.00;;
50309;SDS011;36207;51.850;21.698;2022-11-15T15:23:16;48.00;;;24.00;;
50309;SDS011;36207;51.850;21.698;2022-11-15T15:25:44;38.00;;;23.30;;
50309;SDS011;36207;51.850;21.698;2022-11-15T15:28:14;38.00;;;23.70;;
50309;SDS011;36207;51.850;21.698;2022-11-15T15:31:02;40.00;;;24.60;;
50309;SDS011;36207;51.850;21.698;2022-11-15T15:33:30;41.80;;;25.50;;
50309;SDS011;36207;51.850;21.698;2022-11-15T15:35:59;44.60;;;25.80;;
50309;SDS011;36207;51.850;21.698;2022-11-15T15:38:25;44.00;;;25.90;;
50309;SDS011;36207;51.850;21.698;2022-11-15T15:40:52;44.10;;;26.30;;
50309;SDS011;36207;51.850;21.698;2022-11-15T15:43:18;43.20;;;25.90;;
50309;SDS011;36207;51.850;21.698;2022-11-15T15:45:44;46.70;;;25.10;;
50309;SDS011;36207;51.850;21.698;2022-11-15T15:48:14;45.10;;;26.10;;
50309;SDS011;36207;51.850;21.698;2022-11-15T15:50:42;44.90;;;26.30;;
50309;SDS011;36207;51.850;21.698;2022-11-15T15:53:09;47.90;;;26.90;;
50309;SDS011;36207;51.850;21.698;2022-11-15T15:55:37;49.00;;;27.80;;
50309;SDS011;36207;51.850;21.698;2022-11-15T15:58:04;45.80;;;27.30;;
50309;SDS011;36207;51.850;21.698;2022-11-15T16:00:31;45.40;;;26.60;;
50309;SDS011;36207;51.850;21.698;2022-11-15T16:03:00;47.60;;;27.20;;
50309;SDS011;36207;51.850;21.698;2022-11-15T16:05:26;44.00;;;26.90;;
50309;SDS011;36207;51.850;21.698;2022-11-15T16:07:52;45.20;;;27.10;;
50309;SDS011;36207;51.850;21.698;2022-11-15T16:12:52;49.30;;;28.40;;
50309;SDS011;36207;51.850;21.698;2022-11-15T16:15:20;50.20;;;27.70;;
50309;SDS011;36207;51.850;21.698;2022-11-15T16:17:55;47.90;;;28.50;;
50309;SDS011;36207;51.850;21.698;2022-11-15T16:20:30;52.10;;;29.30;;
50309;SDS011;36207;51.850;21.698;2022-11-15T16:22:59;53.40;;;29.60;;